Meppen Air Base

ETWM · 下萨克森, 德国

罗盘
风向 的 风向 250° Meppen Air Base 6/24
风: 6 kt, 2 beaufort

6 kt

1 kt
改变
0 ft 1.000 2.000 3.000 4.000 5.000
Cloud Cloud
FEW 2.400
METAR EDDW 281420Z AUTO 25006KT 9999 FEW024 03/M01 Q1028 NOSIG

METAR Meppen Air Base - ETWM

Meppen Air Base是,德国中的小机场。 该机场有一条跑道: 6/24. 该领域的国际民航组织标志是ETWM.

这份报告是针对2023年1月28日 15:20, 当地时间在Bremen Airport进行的。

机场观察

风向为250°,速度为6 kt。

可见度为10 km 或者更多。

有几云在2.400 ft的高度。 没有观察到天花板。

温度为3 °C,阵风为-2 °C。 露点为-1 °C,相对湿度为75%。 海平面上的气压为1028 hPa (QNH)。

白天

今天,太阳从08:19升起,在17:07降落。 这适用于Meppen Air Base,世界夏令时可能有所不同。 当地时间与世界标准时间之间的时差为+1 小时。 当前,没有夏令时有效。

公司介绍

我们没有关于这个机场的公司信息。

体会

到Vliegles.nl去找飞行课程,跳伞和其他飞行体验。 浏览页面,了解Meppen Air Base附近所有可用的活动。 你也可以使用搜索功能来寻找你所在地附近的特定飞行课程、跳伞或其他飞行体验。

跑道

Id 标题 侧风 逆风 侧风 %
6/24 057°-237° 1 kt 6 kt 22 %

逆风成分最大的方向会被突出显示,并用于横风计算。 这并不一定意味着这个方向在使用。

乌云

2.400 ft FEW 几云

温度 & 天气

温度 3 °C
露点 -1 °C
相对湿度 75%
风寒 -2 °C
Kp-index 2 (0-9)

白天

日出
08:14
中午
12:37
日落
17:00 (1:31)

小工具

你想在你的网站上有一个关于Meppen Air Base的当前航空天气(METAR)的小部件吗?

显示HTML代码

我们和第三方通过cookies跟踪您在我们网站上的互联网行为。如果你继续,我们认为你同意我们的饼干政策